Time;durP1;ratioP1;P1;durP2;ratioP2;P2;SDS_P1;SDS_P2;PMS_P1;PMS_P2;Temp;Humidity;BMP_temperature;BMP_pressure;BME280_temperature;BME280_humidity;BME280_pressure;Samples;Min_cycle;Max_cycle;Signal;HPM_P1;HPM_P2
2022/05/29 00:01:10;;;;;;;5.65;0.60;;;14.00;85.00;;;;;;5054980;28;20021;-76
2022/05/29 00:03:36;;;;;;;4.60;0.50;;;14.00;85.00;;;;;;5054907;28;20086;-76
2022/05/29 00:06:03;;;;;;;6.63;1.50;;;14.00;85.20;;;;;;5054589;28;20025;-76
2022/05/29 00:08:31;;;;;;;5.55;0.50;;;14.00;85.50;;;;;;5054473;28;20024;-76
2022/05/29 00:10:58;;;;;;;4.20;0.60;;;14.00;85.30;;;;;;5054542;28;20380;-76
2022/05/29 00:13:24;;;;;;;2.70;0.50;;;14.10;85.40;;;;;;5054670;28;20354;-76
2022/05/29 00:15:50;;;;;;;5.60;0.50;;;14.10;85.60;;;;;;5054709;28;20078;-76
2022/05/29 00:18:16;;;;;;;7.03;0.70;;;14.20;85.50;;;;;;5054697;28;20070;-76
2022/05/29 00:20:45;;;;;;;4.38;0.52;;;14.20;85.60;;;;;;5054353;28;20033;-76
2022/05/29 00:23:10;;;;;;;5.18;0.80;;;14.10;85.40;;;;;;5054488;28;20053;-76
2022/05/29 00:25:36;;;;;;;4.22;0.47;;;14.10;85.60;;;;;;5054322;28;20059;-76
2022/05/29 00:28:02;;;;;;;6.00;0.75;;;14.10;85.80;;;;;;5054138;28;20104;-76
2022/05/29 00:30:27;;;;;;;3.50;0.60;;;14.10;86.10;;;;;;5053752;28;20017;-76
2022/05/29 00:32:53;;;;;;;6.47;0.95;;;14.10;86.30;;;;;;5053918;28;20071;-76
2022/05/29 00:35:18;;;;;;;4.75;1.20;;;14.10;86.50;;;;;;5053965;28;20040;-76
2022/05/29 00:37:47;;;;;;;3.30;0.50;;;14.10;86.70;;;;;;5054115;28;20029;-76
2022/05/29 00:40:37;;;;;;;6.93;0.80;;;14.10;86.70;;;;;;5054026;28;20028;-76
2022/05/29 00:43:03;;;;;;;3.35;0.60;;;14.10;87.30;;;;;;5054156;28;20040;-76
2022/05/29 00:45:37;;;;;;;6.30;0.80;;;14.00;87.50;;;;;;5053769;28;20078;-76
2022/05/29 00:48:05;;;;;;;4.47;0.75;;;14.00;88.10;;;;;;5053703;28;20409;-76
2022/05/29 00:50:31;;;;;;;6.78;1.00;;;14.00;88.30;;;;;;5053865;28;20070;-76
2022/05/29 00:52:56;;;;;;;6.63;0.80;;;14.00;88.60;;;;;;5053655;28;20041;-76
2022/05/29 00:55:29;;;;;;;4.50;0.85;;;13.90;88.80;;;;;;5053727;28;20025;-75
2022/05/29 00:58:00;;;;;;;4.45;0.52;;;13.90;89.40;;;;;;5053966;28;20033;-75
2022/05/29 01:00:27;;;;;;;9.15;0.88;;;13.90;89.60;;;;;;5053978;28;20075;-75
2022/05/29 01:02:55;;;;;;;8.45;0.80;;;13.90;90.00;;;;;;5053636;28;20432;-75
2022/05/29 01:05:24;;;;;;;6.18;0.47;;;13.90;90.10;;;;;;5053546;28;20032;-75
2022/05/29 01:08:00;;;;;;;3.80;0.70;;;13.90;90.10;;;;;;5053575;28;20146;-75
2022/05/29 01:10:45;;;;;;;6.78;1.10;;;13.90;90.30;;;;;;5053566;28;20021;-75
2022/05/29 01:13:32;;;;;;;4.93;1.00;;;14.00;90.50;;;;;;5053744;28;20033;-75
2022/05/29 01:16:28;;;;;;;3.58;0.70;;;14.00;90.70;;;;;;5053373;28;20017;-75
2022/05/29 01:19:18;;;;;;;6.38;1.17;;;14.10;90.70;;;;;;5053663;28;20075;-75
2022/05/29 01:21:50;;;;;;;4.68;0.73;;;14.00;90.60;;;;;;5053318;28;20070;-75
2022/05/29 01:24:37;;;;;;;4.28;0.73;;;13.90;90.70;;;;;;5053144;28;20358;-75
2022/05/29 01:27:14;;;;;;;3.35;0.75;;;13.90;90.80;;;;;;5053586;28;20025;-75
2022/05/29 01:29:52;;;;;;;7.43;0.80;;;13.90;90.90;;;;;;5053173;28;20108;-75
2022/05/29 01:32:34;;;;;;;7.30;1.17;;;13.80;91.00;;;;;;5053202;28;20036;-75
2022/05/29 01:35:08;;;;;;;7.05;1.08;;;13.80;91.20;;;;;;5053280;28;20025;-75
2022/05/29 01:37:52;;;;;;;4.30;0.95;;;13.80;91.10;;;;;;5053005;28;20032;-75
2022/05/29 01:40:24;;;;;;;9.65;1.65;;;13.80;91.20;;;;;;5053388;28;20021;-75
2022/05/29 01:42:57;;;;;;;5.60;0.90;;;13.80;91.20;;;;;;5052929;28;20541;-75
2022/05/29 01:45:53;;;;;;;6.05;1.20;;;13.70;91.30;;;;;;5053325;28;20411;-75
2022/05/29 01:48:42;;;;;;;7.43;1.02;;;13.70;91.40;;;;;;5052585;28;20102;-75
2022/05/29 01:51:30;;;;;;;8.70;1.10;;;13.70;91.50;;;;;;5052392;28;20033;-75
2022/05/29 01:54:11;;;;;;;5.97;1.63;;;13.70;91.50;;;;;;5053223;28;20103;-75
2022/05/29 01:56:42;;;;;;;6.28;1.30;;;13.60;91.60;;;;;;5052792;28;20031;-75
2022/05/29 01:59:14;;;;;;;5.88;1.25;;;13.60;91.60;;;;;;5053268;28;20025;-75
2022/05/29 02:01:57;;;;;;;5.80;1.10;;;13.60;91.70;;;;;;5052938;28;20025;-75
2022/05/29 02:04:26;;;;;;;8.37;1.37;;;13.50;91.70;;;;;;5052839;28;20472;-75
2022/05/29 02:09:44;;;;;;;6.40;1.20;;;13.60;91.80;;;;;;5053096;28;20052;-75
2022/05/29 02:12:15;;;;;;;6.82;1.40;;;13.60;91.90;;;;;;5052828;28;20029;-75
2022/05/29 02:14:48;;;;;;;8.02;1.38;;;13.50;92.00;;;;;;5053073;28;20365;-75
2022/05/29 02:17:20;;;;;;;7.10;1.30;;;13.50;92.10;;;;;;5052797;28;20434;-75
2022/05/29 02:19:51;;;;;;;10.00;1.53;;;13.40;92.20;;;;;;5052792;28;20025;-76
2022/05/29 02:22:29;;;;;;;8.40;1.73;;;13.30;92.50;;;;;;5053024;28;20025;-75
2022/05/29 02:25:16;;;;;;;10.55;1.48;;;13.20;92.60;;;;;;5052930;28;20032;-75
2022/05/29 02:27:51;;;;;;;7.57;1.30;;;13.10;92.80;;;;;;5052426;28;20029;-75
2022/05/29 02:30:18;;;;;;;9.57;1.52;;;13.00;93.00;;;;;;5052721;28;20040;-75
2022/05/29 02:32:44;;;;;;;7.68;1.60;;;13.00;93.10;;;;;;5052378;28;20037;-75
2022/05/29 02:35:46;;;;;;;6.28;1.20;;;13.00;93.20;;;;;;5052535;28;20063;-75
2022/05/29 02:38:43;;;;;;;5.75;1.30;;;13.10;93.30;;;;;;5052916;28;20028;-75
2022/05/29 02:41:20;;;;;;;6.93;1.15;;;13.10;93.30;;;;;;5052249;28;20028;-75
2022/05/29 02:43:53;;;;;;;5.88;1.08;;;13.10;93.30;;;;;;5052770;28;20028;-75
2022/05/29 02:46:42;;;;;;;5.88;1.10;;;13.20;93.30;;;;;;5052493;28;20102;-75
2022/05/29 02:49:32;;;;;;;5.85;0.95;;;13.20;93.30;;;;;;5052577;28;20041;-75
2022/05/29 02:52:06;;;;;;;5.03;0.93;;;13.20;93.30;;;;;;5052329;28;20052;-75
2022/05/29 02:54:32;;;;;;;5.40;1.38;;;13.20;93.40;;;;;;5053768;28;20048;-75
2022/05/29 02:57:00;;;;;;;4.60;1.00;;;13.30;93.40;;;;;;5055768;28;20025;-76
2022/05/29 02:59:38;;;;;;;4.20;0.63;;;13.10;93.40;;;;;;5056266;28;20021;-75
2022/05/29 03:02:32;;;;;;;7.30;0.98;;;13.10;93.70;;;;;;5056162;28;20029;-74
2022/05/29 03:05:20;;;;;;;3.72;0.73;;;13.00;93.70;;;;;;5056249;28;20021;-75
2022/05/29 03:08:18;;;;;;;4.85;0.60;;;13.00;93.90;;;;;;5055881;28;20025;-75
2022/05/29 03:11:11;;;;;;;4.35;0.63;;;12.90;94.00;;;;;;5055818;28;20372;-75
2022/05/29 03:13:48;;;;;;;3.22;0.50;;;12.90;94.10;;;;;;5055848;28;20116;-75
2022/05/29 03:16:13;;;;;;;3.67;0.70;;;12.90;94.40;;;;;;5055688;28;20439;-74
2022/05/29 03:19:05;;;;;;;5.82;0.85;;;12.90;94.40;;;;;;5055481;28;20111;-75
2022/05/29 03:21:37;;;;;;;5.72;1.42;;;12.80;94.50;;;;;;5024503;28;20041;-75
2022/05/29 03:24:18;;;;;;;3.83;0.82;;;12.80;94.80;;;;;;5055428;28;20028;-75
2022/05/29 03:27:06;;;;;;;3.15;0.60;;;12.80;94.80;;;;;;5055589;28;20384;-74
2022/05/29 03:29:53;;;;;;;4.40;0.88;;;12.70;95.00;;;;;;5055653;28;20039;-74
2022/05/29 03:32:20;;;;;;;6.32;0.90;;;12.70;95.10;;;;;;5055519;28;20037;-74
2022/05/29 03:34:45;;;;;;;4.82;0.70;;;12.70;95.10;;;;;;5055199;28;20099;-75
2022/05/29 03:37:11;;;;;;;5.03;1.08;;;12.70;95.10;;;;;;5055322;28;20493;-75
2022/05/29 03:39:37;;;;;;;5.38;0.90;;;12.70;95.30;;;;;;5055119;28;20021;-75
2022/05/29 03:42:03;;;;;;;4.78;1.10;;;12.60;95.60;;;;;;5055383;28;20053;-75
2022/05/29 03:44:28;;;;;;;5.03;1.08;;;12.60;95.80;;;;;;5054847;28;20472;-74
2022/05/29 03:46:54;;;;;;;6.93;1.00;;;12.60;95.80;;;;;;5054925;28;20087;-75
2022/05/29 03:49:21;;;;;;;5.60;0.90;;;12.60;95.80;;;;;;5055029;28;20025;-75
2022/05/29 03:51:48;;;;;;;9.45;1.40;;;12.70;95.90;;;;;;5054892;28;20539;-75
2022/05/29 03:54:14;;;;;;;6.63;1.13;;;12.60;95.90;;;;;;5055051;28;20020;-75
2022/05/29 03:56:40;;;;;;;4.90;0.93;;;12.50;96.10;;;;;;5054970;28;20029;-75
2022/05/29 03:59:05;;;;;;;5.22;1.20;;;12.50;96.30;;;;;;5054970;28;20350;-75
2022/05/29 04:01:32;;;;;;;3.90;1.10;;;12.50;96.40;;;;;;5055042;28;20074;-75
2022/05/29 04:03:58;;;;;;;3.58;1.08;;;12.50;96.50;;;;;;5054995;28;20082;-75
2022/05/29 04:06:26;;;;;;;5.82;1.10;;;12.50;96.40;;;;;;5053536;28;20017;-75
2022/05/29 04:14:25;;;;;;;5.97;1.27;;;12.50;96.60;;;;;;5054527;28;20396;-75
2022/05/29 04:16:51;;;;;;;5.50;1.05;;;12.50;96.70;;;;;;5054738;28;20021;-75
2022/05/29 04:19:16;;;;;;;4.32;1.20;;;12.50;96.80;;;;;;5054359;28;20025;-76
2022/05/29 04:21:42;;;;;;;6.57;1.00;;;12.50;96.90;;;;;;5054680;28;20021;-75
2022/05/29 04:24:08;;;;;;;5.68;0.90;;;12.50;96.70;;;;;;5054266;28;20028;-75
2022/05/29 04:26:34;;;;;;;4.20;0.93;;;12.50;96.70;;;;;;5054243;28;20021;-75
2022/05/29 04:29:04;;;;;;;4.68;1.40;;;12.50;96.60;;;;;;5054523;28;20029;-75
2022/05/29 04:31:31;;;;;;;7.07;1.42;;;12.60;96.70;;;;;;5053971;28;20021;-76
2022/05/29 04:33:57;;;;;;;8.18;1.13;;;12.60;96.70;;;;;;5054087;28;20028;-75
2022/05/29 04:36:23;;;;;;;4.75;0.93;;;12.60;96.60;;;;;;5054133;28;20379;-76
2022/05/29 04:38:49;;;;;;;4.80;0.70;;;12.60;96.60;;;;;;5054272;28;20055;-76
2022/05/29 04:41:16;;;;;;;6.72;1.20;;;12.60;96.70;;;;;;5054096;28;20044;-76
2022/05/29 04:43:42;;;;;;;4.05;1.00;;;12.60;96.70;;;;;;5054029;28;20025;-76
2022/05/29 04:46:07;;;;;;;2.85;1.05;;;12.60;96.60;;;;;;5054182;28;20040;-75
2022/05/29 04:48:33;;;;;;;3.42;0.65;;;12.60;96.60;;;;;;5053439;28;20107;-76
2022/05/29 04:51:00;;;;;;;4.43;0.80;;;12.70;96.70;;;;;;5053912;28;20053;-76
2022/05/29 04:53:28;;;;;;;4.38;0.93;;;12.70;96.60;;;;;;5054090;28;20056;-76
2022/05/29 04:55:56;;;;;;;2.67;0.80;;;12.80;96.60;;;;;;5053662;28;20021;-76
2022/05/29 04:58:23;;;;;;;3.30;0.80;;;12.90;96.40;;;;;;5053925;28;20077;-76
2022/05/29 05:00:49;;;;;;;2.20;0.52;;;13.00;96.20;;;;;;5053500;28;20032;-76
2022/05/29 05:03:15;;;;;;;4.15;0.85;;;13.00;96.10;;;;;;5053740;28;20385;-76
2022/05/29 05:05:40;;;;;;;3.22;0.70;;;13.00;96.00;;;;;;5053615;28;20021;-76
2022/05/29 05:08:06;;;;;;;2.30;0.60;;;13.00;96.00;;;;;;5053290;28;20499;-76
2022/05/29 05:10:32;;;;;;;2.88;0.73;;;13.00;96.00;;;;;;5053229;28;20025;-76
2022/05/29 05:12:57;;;;;;;4.70;0.90;;;13.00;96.00;;;;;;5053141;28;20047;-76
2022/05/29 05:15:23;;;;;;;5.50;1.00;;;13.10;96.10;;;;;;5053265;28;20075;-75
2022/05/29 05:17:48;;;;;;;4.28;0.77;;;13.00;96.00;;;;;;5053105;28;20043;-76
2022/05/29 05:20:14;;;;;;;8.82;0.88;;;13.00;96.20;;;;;;5052932;28;20017;-76
2022/05/29 05:22:41;;;;;;;3.38;0.70;;;13.00;96.40;;;;;;5053315;28;20024;-76
2022/05/29 05:25:08;;;;;;;3.58;0.68;;;13.00;96.40;;;;;;5053363;28;20032;-76
2022/05/29 05:27:34;;;;;;;4.97;0.73;;;13.00;96.50;;;;;;5053049;28;20104;-76
2022/05/29 05:29:59;;;;;;;3.65;0.70;;;12.90;96.60;;;;;;5053099;28;20131;-76
2022/05/29 05:32:25;;;;;;;4.63;0.50;;;12.90;96.90;;;;;;5052748;28;20385;-76
2022/05/29 05:34:50;;;;;;;7.25;0.90;;;12.90;97.10;;;;;;5053391;28;20025;-76
2022/05/29 05:37:16;;;;;;;2.17;0.52;;;12.80;97.10;;;;;;5053096;28;20025;-76
2022/05/29 05:39:43;;;;;;;5.22;0.70;;;12.80;97.20;;;;;;5053158;28;20025;-76
2022/05/29 05:42:09;;;;;;;3.35;0.60;;;12.80;97.70;;;;;;5053359;28;20040;-75
2022/05/29 05:44:34;;;;;;;3.10;0.60;;;12.70;97.40;;;;;;5052701;28;20028;-76
2022/05/29 05:47:00;;;;;;;6.65;0.80;;;12.70;97.60;;;;;;5053008;28;20040;-76
2022/05/29 05:49:25;;;;;;;3.58;0.95;;;12.70;97.60;;;;;;5053121;28;20024;-76
2022/05/29 05:51:51;;;;;;;3.90;0.70;;;12.70;98.10;;;;;;5052944;28;20039;-76
2022/05/29 05:54:18;;;;;;;4.15;0.57;;;12.80;97.80;;;;;;5052904;28;20090;-75
2022/05/29 05:56:47;;;;;;;4.03;0.55;;;12.80;97.70;;;;;;5053273;28;20027;-76
2022/05/29 05:59:14;;;;;;;3.85;0.65;;;12.90;97.70;;;;;;5052855;28;20104;-76
2022/05/29 06:01:40;;;;;;;4.28;0.77;;;13.00;97.60;;;;;;5053118;28;20028;-76
2022/05/29 06:04:06;;;;;;;6.03;0.60;;;12.90;97.50;;;;;;5053120;28;20358;-75
2022/05/29 06:06:32;;;;;;;3.47;1.10;;;12.90;97.60;;;;;;5052988;28;20028;-76
2022/05/29 06:08:58;;;;;;;3.17;0.50;;;13.00;97.70;;;;;;5052892;28;20025;-76
2022/05/29 06:11:26;;;;;;;3.90;0.70;;;12.90;97.70;;;;;;5052756;28;20025;-75
2022/05/29 06:13:52;;;;;;;3.20;0.65;;;12.80;97.80;;;;;;5052743;28;20056;-75
2022/05/29 06:16:18;;;;;;;5.13;0.50;;;12.80;97.90;;;;;;5052825;28;20104;-75
2022/05/29 06:18:44;;;;;;;6.40;1.48;;;12.80;97.90;;;;;;5052814;28;20472;-75
2022/05/29 06:21:10;;;;;;;4.85;0.52;;;12.90;98.00;;;;;;5053073;28;20102;-76
2022/05/29 06:23:36;;;;;;;3.20;0.75;;;13.00;98.00;;;;;;5052631;28;20163;-76
2022/05/29 06:26:13;;;;;;;3.63;0.60;;;13.00;98.00;;;;;;5052628;28;20033;-76
2022/05/29 06:28:40;;;;;;;3.20;0.70;;;13.10;97.80;;;;;;5053043;28;20025;-76
2022/05/29 06:31:08;;;;;;;2.10;0.40;;;13.10;97.70;;;;;;5056628;28;20025;-76
2022/05/29 06:33:34;;;;;;;3.38;0.50;;;13.10;97.70;;;;;;5056366;28;20035;-76
2022/05/29 06:36:15;;;;;;;2.20;0.40;;;13.10;97.60;;;;;;5056154;28;20554;-75
2022/05/29 06:38:42;;;;;;;5.05;0.52;;;13.20;97.50;;;;;;5056335;28;20036;-75
2022/05/29 06:41:10;;;;;;;2.95;0.40;;;13.20;97.20;;;;;;5056522;28;20025;-74
2022/05/29 06:43:36;;;;;;;5.03;0.75;;;13.10;97.00;;;;;;5056203;28;20477;-75
2022/05/29 06:46:04;;;;;;;4.57;0.55;;;13.10;97.30;;;;;;5055899;28;20465;-74
2022/05/29 06:48:31;;;;;;;4.57;1.25;;;13.10;97.30;;;;;;5056008;28;20045;-75
2022/05/29 06:51:02;;;;;;;3.67;0.63;;;13.20;97.20;;;;;;5056417;28;20075;-75
2022/05/29 06:53:27;;;;;;;3.60;0.50;;;13.20;97.10;;;;;;5055829;28;20087;-75
2022/05/29 06:55:54;;;;;;;4.63;0.70;;;13.00;97.30;;;;;;5056185;28;20064;-75
2022/05/29 06:58:22;;;;;;;4.93;0.82;;;13.00;97.60;;;;;;5056233;28;20134;-75
2022/05/29 07:09:00;;;;;;;4.38;0.50;;;13.10;97.90;;;;;;5055857;28;20032;-75
2022/05/29 07:11:30;;;;;;;4.80;0.50;;;13.20;97.90;;;;;;5055405;28;20025;-76
2022/05/29 07:13:57;;;;;;;2.03;0.47;;;13.20;97.60;;;;;;5055715;28;20035;-75
2022/05/29 07:16:23;;;;;;;3.13;0.40;;;13.30;97.70;;;;;;5055234;28;20021;-75
2022/05/29 07:18:50;;;;;;;2.70;0.50;;;13.40;97.80;;;;;;5055892;28;20028;-75
2022/05/29 07:21:16;;;;;;;1.85;0.30;;;13.40;97.60;;;;;;5055901;28;20025;-75
2022/05/29 07:23:42;;;;;;;3.42;0.40;;;13.40;97.40;;;;;;5055229;28;20033;-76
2022/05/29 07:26:08;;;;;;;2.15;0.60;;;13.40;97.30;;;;;;5055707;28;20033;-76
2022/05/29 07:28:34;;;;;;;2.00;0.55;;;13.40;97.20;;;;;;5055456;28;20047;-76
2022/05/29 07:30:59;;;;;;;2.17;0.50;;;13.50;97.30;;;;;;5055040;28;20431;-76
2022/05/29 07:33:25;;;;;;;3.88;0.40;;;13.50;97.20;;;;;;5055532;28;20115;-76
2022/05/29 07:35:51;;;;;;;1.52;0.43;;;13.50;97.00;;;;;;5055531;28;20517;-76
2022/05/29 07:38:17;;;;;;;2.65;0.60;;;13.40;96.90;;;;;;5055397;28;20086;-75
2022/05/29 07:40:42;;;;;;;4.13;0.30;;;13.30;96.80;;;;;;5055238;28;20107;-76
2022/05/29 07:43:22;;;;;;;6.40;0.50;;;13.30;96.90;;;;;;5055430;28;20457;-76
2022/05/29 07:45:52;;;;;;;4.13;0.50;;;13.30;97.10;;;;;;5055285;28;20071;-76
2022/05/29 07:48:20;;;;;;;2.35;0.32;;;13.40;97.30;;;;;;5054927;28;20053;-76
2022/05/29 07:50:46;;;;;;;4.22;0.50;;;13.40;97.20;;;;;;5055082;28;20468;-76
2022/05/29 07:53:11;;;;;;;2.25;0.40;;;13.40;97.20;;;;;;5055224;28;20046;-76
2022/05/29 07:55:38;;;;;;;2.92;0.50;;;13.40;97.50;;;;;;5054965;28;20112;-76
2022/05/29 07:58:07;;;;;;;3.83;0.40;;;13.50;97.60;;;;;;5054943;28;20433;-76
2022/05/29 08:00:34;;;;;;;2.53;0.47;;;13.50;97.50;;;;;;5055067;28;20024;-76
2022/05/29 08:03:01;;;;;;;2.00;0.40;;;13.60;97.60;;;;;;5054871;28;20100;-76
2022/05/29 08:05:29;;;;;;;3.78;0.52;;;13.60;97.70;;;;;;5055046;28;20033;-76
2022/05/29 08:07:55;;;;;;;2.88;0.32;;;13.70;97.70;;;;;;5054497;28;20028;-76
2022/05/29 08:10:22;;;;;;;3.17;0.73;;;13.80;97.70;;;;;;5054655;28;20025;-76
2022/05/29 08:12:47;;;;;;;3.67;0.65;;;13.80;97.80;;;;;;5054443;28;20511;-76
2022/05/29 08:15:13;;;;;;;3.95;0.40;;;13.90;97.40;;;;;;5054540;28;20025;-76
2022/05/29 08:17:39;;;;;;;2.20;0.50;;;14.00;97.40;;;;;;5054099;28;20080;-76
2022/05/29 08:20:06;;;;;;;2.17;0.47;;;14.10;97.30;;;;;;5054372;28;20051;-75
2022/05/29 08:22:32;;;;;;;4.88;0.77;;;14.00;97.00;;;;;;5054358;28;20040;-75
2022/05/29 08:30:41;;;;;;;3.30;0.50;;;14.00;96.80;;;;;;5054351;28;20024;-75
2022/05/29 08:33:12;;;;;;;2.10;0.40;;;14.00;97.00;;;;;;5054154;28;20041;-75
2022/05/29 08:35:39;;;;;;;2.80;0.60;;;13.90;97.30;;;;;;5054140;28;20484;-75
2022/05/29 08:38:06;;;;;;;3.55;0.60;;;13.90;97.50;;;;;;5054200;28;20025;-75
2022/05/29 08:40:38;;;;;;;3.85;0.50;;;13.90;97.50;;;;;;5054296;28;20029;-75
2022/05/29 08:43:03;;;;;;;2.95;0.50;;;13.90;98.00;;;;;;5054226;28;20032;-75
2022/05/29 08:45:33;;;;;;;3.20;0.60;;;13.90;97.80;;;;;;5053655;28;20373;-75
2022/05/29 08:47:59;;;;;;;5.00;0.80;;;13.90;97.30;;;;;;5053304;28;20053;-75
2022/05/29 08:50:42;;;;;;;4.18;0.75;;;13.80;97.30;;;;;;5054127;28;20017;-75
2022/05/29 08:53:37;;;;;;;3.50;0.57;;;13.80;97.50;;;;;;5053062;28;20502;-76
2022/05/29 08:56:14;;;;;;;5.88;0.75;;;13.90;97.60;;;;;;5051826;28;20082;-76
2022/05/29 08:59:03;;;;;;;4.22;0.40;;;13.90;97.50;;;;;;5053820;28;20029;-76
2022/05/29 09:02:10;;;;;;;6.35;0.60;;;13.90;97.40;;;;;;5053485;28;20047;-75
2022/05/29 09:04:45;;;;;;;3.05;0.60;;;14.10;97.40;;;;;;5052910;28;20067;-76
2022/05/29 09:07:15;;;;;;;4.88;0.52;;;14.20;97.40;;;;;;5053733;28;20074;-76
2022/05/29 09:09:44;;;;;;;4.65;0.50;;;14.20;97.10;;;;;;5053546;28;20176;-76
2022/05/29 09:12:26;;;;;;;6.88;0.80;;;14.20;97.10;;;;;;5053364;28;20074;-75
2022/05/29 09:15:27;;;;;;;2.60;0.30;;;14.30;96.60;;;;;;5053542;28;20385;-75
2022/05/29 09:17:55;;;;;;;3.50;0.30;;;14.20;96.30;;;;;;4991854;28;20482;-75
2022/05/29 09:20:21;;;;;;;3.78;0.40;;;14.10;95.90;;;;;;5042053;28;20040;-75
2022/05/29 09:22:47;;;;;;;3.88;0.65;;;14.20;95.90;;;;;;5053708;28;20025;-76
2022/05/29 09:25:32;;;;;;;6.45;0.57;;;14.20;96.10;;;;;;5053237;28;20024;-75
2022/05/29 09:28:09;;;;;;;3.88;0.50;;;14.10;96.50;;;;;;5053243;28;20021;-75
2022/05/29 09:30:35;;;;;;;6.97;0.88;;;14.20;96.50;;;;;;5053485;28;20029;-75
2022/05/29 09:33:07;;;;;;;3.75;0.77;;;14.30;96.40;;;;;;5052975;28;20040;-75
2022/05/29 09:36:05;;;;;;;6.22;0.77;;;14.30;96.40;;;;;;5052961;28;20033;-75
2022/05/29 09:38:34;;;;;;;4.63;0.70;;;14.30;96.60;;;;;;5052778;28;20172;-75
2022/05/29 09:41:37;;;;;;;4.72;0.63;;;14.30;96.40;;;;;;5052975;28;20021;-75
2022/05/29 09:44:19;;;;;;;4.22;0.50;;;14.40;95.70;;;;;;5052962;28;20025;-75
2022/05/29 09:46:47;;;;;;;3.78;0.50;;;14.50;95.50;;;;;;5052745;28;20114;-75
2022/05/29 09:49:42;;;;;;;10.27;1.20;;;14.60;95.60;;;;;;5053265;28;20021;-75
2022/05/29 09:52:18;;;;;;;7.95;0.85;;;14.90;95.60;;;;;;5052589;28;20037;-75
2022/05/29 09:54:55;;;;;;;6.28;0.80;;;15.10;95.40;;;;;;5052859;28;20384;-76
2022/05/29 09:57:26;;;;;;;9.18;0.75;;;15.30;95.60;;;;;;5052978;28;20021;-75
2022/05/29 10:00:14;;;;;;;5.28;0.70;;;15.40;94.70;;;;;;5052952;28;20509;-75
2022/05/29 10:02:45;;;;;;;4.13;0.60;;;15.50;94.10;;;;;;5052082;28;20357;-76
2022/05/29 10:05:27;;;;;;;5.32;0.77;;;15.50;93.50;;;;;;5057108;28;20029;-76
2022/05/29 10:07:57;;;;;;;6.07;0.43;;;15.50;93.40;;;;;;5056855;28;20107;-76
2022/05/29 10:10:25;;;;;;;6.82;0.93;;;15.40;92.80;;;;;;5056392;28;20392;-75
2022/05/29 10:12:58;;;;;;;5.68;0.60;;;15.50;93.00;;;;;;5056685;28;20063;-75
2022/05/29 10:15:26;;;;;;;8.15;0.60;;;15.50;92.80;;;;;;5057002;28;20028;-76
2022/05/29 10:17:58;;;;;;;5.78;0.47;;;15.50;91.90;;;;;;5056585;28;20534;-75
2022/05/29 10:20:30;;;;;;;5.95;0.70;;;15.40;91.80;;;;;;5056773;28;20029;-75
2022/05/29 10:22:57;;;;;;;5.82;0.50;;;15.30;92.70;;;;;;5056396;28;20029;-77
2022/05/29 10:25:31;;;;;;;6.65;0.68;;;15.30;92.50;;;;;;5056575;28;20021;-76
2022/05/29 10:28:01;;;;;;;7.20;0.60;;;15.30;92.20;;;;;;5056400;28;20025;-75
2022/05/29 10:30:58;;;;;;;7.82;0.88;;;15.20;92.40;;;;;;5056574;28;20029;-75
2022/05/29 10:33:27;;;;;;;4.07;0.40;;;15.30;92.60;;;;;;5056345;28;20029;-75
2022/05/29 10:36:16;;;;;;;4.45;0.60;;;15.30;92.60;;;;;;5056524;28;20021;-75
2022/05/29 10:38:43;;;;;;;7.13;0.60;;;15.20;93.10;;;;;;5056474;28;20032;-75
2022/05/29 10:41:10;;;;;;;4.57;0.35;;;15.20;92.90;;;;;;5056006;28;20381;-76
2022/05/29 10:43:44;;;;;;;4.15;0.50;;;15.20;93.20;;;;;;5056477;28;20027;-75
2022/05/29 10:46:16;;;;;;;6.20;0.65;;;15.10;93.20;;;;;;5056159;28;20027;-75
2022/05/29 10:49:27;;;;;;;4.65;0.50;;;15.00;93.60;;;;;;5056060;28;20049;-76
2022/05/29 10:52:09;;;;;;;7.40;0.80;;;14.90;93.80;;;;;;5055882;28;20476;-75
2022/05/29 10:54:59;;;;;;;4.05;0.40;;;14.70;93.70;;;;;;5055752;28;20520;-76
2022/05/29 10:57:25;;;;;;;6.18;0.35;;;14.60;93.60;;;;;;5056073;28;20056;-75
2022/05/29 11:00:32;;;;;;;4.40;0.60;;;14.70;93.90;;;;;;5056021;28;20492;-75
2022/05/29 11:03:21;;;;;;;4.35;0.90;;;14.70;93.70;;;;;;4993950;28;20053;-76
2022/05/29 11:06:19;;;;;;;2.65;0.57;;;14.70;94.00;;;;;;5052894;28;20040;-76
2022/05/29 11:09:11;;;;;;;6.55;0.70;;;14.90;93.90;;;;;;5056107;28;20427;-76
2022/05/29 11:12:03;;;;;;;6.30;0.60;;;15.20;93.40;;;;;;5055362;28;20032;-76
2022/05/29 11:15:04;;;;;;;4.43;0.40;;;15.40;92.20;;;;;;5055041;28;20021;-76
2022/05/29 11:18:01;;;;;;;4.80;0.40;;;15.30;91.40;;;;;;5055669;28;20032;-76
2022/05/29 11:20:55;;;;;;;4.85;0.30;;;15.40;91.40;;;;;;5055738;28;20029;-76
2022/05/29 11:23:44;;;;;;;3.33;0.45;;;15.40;91.60;;;;;;5054904;28;20025;-76
2022/05/29 11:26:42;;;;;;;5.57;0.57;;;15.40;91.80;;;;;;5055677;28;20021;-76
2022/05/29 11:29:46;;;;;;;4.35;0.50;;;15.30;90.60;;;;;;5027577;28;20037;-76
2022/05/29 11:32:43;;;;;;;6.60;0.70;;;15.40;90.70;;;;;;5041577;28;20056;-76
2022/05/29 11:35:22;;;;;;;7.95;0.50;;;15.50;90.20;;;;;;5054861;28;20554;-76
2022/05/29 11:38:02;;;;;;;5.65;0.85;;;15.50;90.00;;;;;;5055165;28;20464;-76
2022/05/29 11:40:36;;;;;;;6.70;1.15;;;15.60;90.10;;;;;;5055020;28;20043;-76
2022/05/29 11:43:12;;;;;;;3.42;0.40;;;15.70;90.20;;;;;;5055314;28;20029;-76
2022/05/29 11:51:56;;;;;;;6.63;0.60;;;15.90;90.10;;;;;;5055248;28;20462;-76
2022/05/29 11:54:49;;;;;;;5.23;0.60;;;16.00;90.10;;;;;;5055294;28;20044;-76
2022/05/29 11:57:29;;;;;;;4.05;0.70;;;16.10;90.20;;;;;;5055161;28;20108;-76
2022/05/29 12:00:01;;;;;;;6.45;0.70;;;16.10;89.30;;;;;;5054697;28;20095;-76
2022/05/29 12:02:48;;;;;;;5.65;0.50;;;16.20;88.60;;;;;;5054296;28;20468;-76
2022/05/29 12:05:34;;;;;;;4.20;0.40;;;16.40;88.10;;;;;;5054483;28;20032;-76
2022/05/29 12:08:16;;;;;;;3.95;0.50;;;16.50;87.90;;;;;;5053996;28;20028;-76
2022/05/29 12:11:04;;;;;;;3.72;0.68;;;16.70;87.30;;;;;;5054593;28;20025;-76
2022/05/29 12:13:40;;;;;;;3.92;0.47;;;16.80;86.70;;;;;;5054253;28;20044;-76
2022/05/29 12:16:10;;;;;;;4.78;0.40;;;17.00;85.60;;;;;;5054409;28;20021;-76
2022/05/29 12:18:52;;;;;;;3.10;0.40;;;17.20;83.10;;;;;;5054568;28;20380;-75
2022/05/29 12:21:31;;;;;;;3.38;0.40;;;17.20;82.80;;;;;;5054268;28;20119;-75
2022/05/29 12:23:59;;;;;;;4.32;0.40;;;17.00;83.10;;;;;;5053975;28;20021;-75
2022/05/29 12:26:36;;;;;;;2.30;0.20;;;17.00;84.70;;;;;;5053644;28;20362;-75
2022/05/29 12:29:09;;;;;;;3.28;0.30;;;17.20;83.90;;;;;;5054335;28;20103;-76
2022/05/29 12:31:44;;;;;;;4.47;0.40;;;17.30;80.90;;;;;;5053801;28;20051;-76
2022/05/29 12:34:24;;;;;;;3.72;1.00;;;17.20;83.30;;;;;;5054506;28;20041;-75
2022/05/29 12:37:13;;;;;;;2.70;0.43;;;17.10;81.40;;;;;;5053573;28;20508;-75
2022/05/29 12:40:00;;;;;;;4.05;0.30;;;16.80;80.90;;;;;;5053981;28;20484;-75
2022/05/29 12:43:10;;;;;;;1.75;0.20;;;16.70;80.70;;;;;;5053951;28;20025;-76
2022/05/29 12:45:54;;;;;;;1.90;0.40;;;16.60;79.40;;;;;;5030137;28;20061;-75
2022/05/29 12:48:41;;;;;;;2.53;0.28;;;16.40;78.20;;;;;;5090311;27;20543;-75
2022/05/29 12:51:26;;;;;;;4.05;0.30;;;16.20;78.80;;;;;;5090741;28;20035;-75
2022/05/29 12:54:02;;;;;;;1.35;0.15;;;16.30;78.90;;;;;;5090357;28;20044;-75
2022/05/29 12:56:42;;;;;;;1.95;0.20;;;16.30;78.50;;;;;;5090551;28;20476;-75
2022/05/29 12:59:32;;;;;;;1.52;0.10;;;16.40;78.70;;;;;;5090426;28;20531;-75
2022/05/29 13:02:04;;;;;;;3.03;0.30;;;16.40;78.00;;;;;;5090400;28;20378;-75
2022/05/29 13:04:57;;;;;;;4.03;0.20;;;16.40;78.40;;;;;;5090218;28;20040;-75
2022/05/29 13:07:47;;;;;;;;;;;16.40;78.50;;;;;;5090498;28;20036;-75
2022/05/29 13:10:25;;;;;;;2.63;0.20;;;16.60;78.90;;;;;;5090118;28;19904;-75
2022/05/29 13:13:19;;;;;;;2.47;0.10;;;16.60;80.00;;;;;;5090234;28;20033;-75
2022/05/29 13:15:45;;;;;;;3.88;0.20;;;16.60;78.30;;;;;;5084679;28;20115;-76
2022/05/29 13:21:07;;;;;;;3.90;0.20;;;16.50;77.80;;;;;;5090438;28;20024;-76
2022/05/29 13:23:41;;;;;;;2.38;0.40;;;16.70;78.30;;;;;;5089472;28;20454;-75
2022/05/29 13:26:07;;;;;;;3.63;0.30;;;16.70;77.30;;;;;;5089741;28;20020;-75
2022/05/29 13:28:41;;;;;;;1.80;0.10;;;16.70;77.30;;;;;;5089914;28;20036;-76
2022/05/29 13:31:12;;;;;;;3.28;0.20;;;16.70;78.10;;;;;;5090165;28;20103;-76
2022/05/29 13:33:59;;;;;;;1.85;0.10;;;16.70;78.40;;;;;;5089348;28;20546;-75
2022/05/29 13:36:49;;;;;;;4.50;0.73;;;16.70;77.10;;;;;;5090356;28;20060;-76
2022/05/29 13:39:24;;;;;;;3.88;0.20;;;16.70;75.90;;;;;;5089649;28;20028;-75
2022/05/29 13:41:50;;;;;;;2.00;0.20;;;16.80;75.20;;;;;;5089882;28;20033;-76
2022/05/29 13:44:30;;;;;;;1.45;0.20;;;16.90;75.00;;;;;;5089930;28;20028;-76
2022/05/29 13:47:36;;;;;;;3.42;0.30;;;17.00;75.30;;;;;;5088965;28;20048;-75
2022/05/29 13:50:14;;;;;;;2.00;0.20;;;17.10;73.90;;;;;;5046981;28;20104;-76
2022/05/29 13:52:54;;;;;;;1.92;0.20;;;17.00;73.70;;;;;;5085931;28;20040;-76
2022/05/29 13:55:30;;;;;;;0.93;0.20;;;17.00;73.40;;;;;;5089746;28;20046;-76